sensor_id;sensor_type;location;lat;lon;timestamp;pressure;altitude;pressure_sealevel;temperature;humidity
43217;BME280;60511;42.686;23.300;2023-04-05T00:01:47;94169.44;;;22.18;28.27
43217;BME280;60511;42.686;23.300;2023-04-05T00:03:49;94200.88;;;22.30;28.09
43217;BME280;60511;42.686;23.300;2023-04-05T00:05:51;94202.38;;;22.27;28.38
43217;BME280;60511;42.686;23.300;2023-04-05T00:07:57;94178.66;;;22.17;28.01
43217;BME280;60511;42.686;23.300;2023-04-05T00:09:59;94180.22;;;22.18;27.96
43217;BME280;60511;42.686;23.300;2023-04-05T00:12:00;94184.09;;;22.21;28.34
43217;BME280;60511;42.686;23.300;2023-04-05T00:14:01;94111.00;;;21.83;27.88
43217;BME280;60511;42.686;23.300;2023-04-05T00:16:02;94057.47;;;21.43;28.03
43217;BME280;60511;42.686;23.300;2023-04-05T00:18:02;94189.94;;;22.23;28.06
43217;BME280;60511;42.686;23.300;2023-04-05T00:20:03;94203.66;;;22.34;28.24
43217;BME280;60511;42.686;23.300;2023-04-05T00:22:06;94194.34;;;22.31;27.77
43217;BME280;60511;42.686;23.300;2023-04-05T00:24:09;94185.41;;;22.27;27.51
43217;BME280;60511;42.686;23.300;2023-04-05T00:26:14;94191.19;;;22.25;28.55
43217;BME280;60511;42.686;23.300;2023-04-05T00:28:14;94141.91;;;21.90;28.20
43217;BME280;60511;42.686;23.300;2023-04-05T00:30:15;94189.50;;;22.21;28.13
43217;BME280;60511;42.686;23.300;2023-04-05T00:32:20;94044.06;;;21.27;28.35
43217;BME280;60511;42.686;23.300;2023-04-05T00:34:20;94191.59;;;22.27;28.32
43217;BME280;60511;42.686;23.300;2023-04-05T00:36:21;94202.44;;;22.31;27.74
43217;BME280;60511;42.686;23.300;2023-04-05T00:38:22;94197.34;;;22.26;27.13
43217;BME280;60511;42.686;23.300;2023-04-05T00:40:23;94195.63;;;22.18;28.09
43217;BME280;60511;42.686;23.300;2023-04-05T00:42:23;94204.22;;;22.23;28.41
43217;BME280;60511;42.686;23.300;2023-04-05T00:44:23;94205.00;;;22.24;27.99
43217;BME280;60511;42.686;23.300;2023-04-05T00:46:24;94058.38;;;21.31;28.46
43217;BME280;60511;42.686;23.300;2023-04-05T00:48:25;94206.56;;;22.25;28.04
43217;BME280;60511;42.686;23.300;2023-04-05T00:50:26;94200.47;;;22.28;27.90
43217;BME280;60511;42.686;23.300;2023-04-05T00:52:29;94138.78;;;21.87;27.80
43217;BME280;60511;42.686;23.300;2023-04-05T00:54:31;94204.06;;;22.16;28.28
43217;BME280;60511;42.686;23.300;2023-04-05T00:56:32;94135.53;;;21.78;27.80
43217;BME280;60511;42.686;23.300;2023-04-05T00:58:32;94153.03;;;21.88;28.18
43217;BME280;60511;42.686;23.300;2023-04-05T01:00:36;94226.66;;;22.27;28.13
43217;BME280;60511;42.686;23.300;2023-04-05T01:02:44;94133.19;;;21.77;27.13
43217;BME280;60511;42.686;23.300;2023-04-05T01:04:54;94149.16;;;21.85;27.70
43217;BME280;60511;42.686;23.300;2023-04-05T01:11:39;94219.09;;;22.17;27.62
43217;BME280;60511;42.686;23.300;2023-04-05T01:13:39;94218.50;;;22.24;27.32
43217;BME280;60511;42.686;23.300;2023-04-05T01:15:40;94209.09;;;22.18;27.68
43217;BME280;60511;42.686;23.300;2023-04-05T01:17:40;94228.66;;;22.15;27.72
43217;BME280;60511;42.686;23.300;2023-04-05T01:19:41;94223.25;;;22.15;27.46
43217;BME280;60511;42.686;23.300;2023-04-05T01:21:54;94212.91;;;22.17;28.35
43217;BME280;60511;42.686;23.300;2023-04-05T01:26:44;94188.31;;;21.99;27.78
43217;BME280;60511;42.686;23.300;2023-04-05T01:31:08;94191.28;;;21.94;27.90
43217;BME280;60511;42.686;23.300;2023-04-05T01:33:25;94227.25;;;22.21;27.95
43217;BME280;60511;42.686;23.300;2023-04-05T01:35:44;94194.03;;;21.97;28.06
43217;BME280;60511;42.686;23.300;2023-04-05T01:37:54;94219.38;;;22.12;28.12
43217;BME280;60511;42.686;23.300;2023-04-05T01:39:58;94237.59;;;22.19;27.75
43217;BME280;60511;42.686;23.300;2023-04-05T01:41:59;94232.94;;;22.16;27.94
43217;BME280;60511;42.686;23.300;2023-04-05T01:44:00;94236.47;;;22.20;27.56
43217;BME280;60511;42.686;23.300;2023-04-05T01:46:00;94220.56;;;22.15;27.40
43217;BME280;60511;42.686;23.300;2023-04-05T01:48:01;94183.41;;;21.85;27.92
43217;BME280;60511;42.686;23.300;2023-04-05T01:50:01;94227.03;;;22.10;27.50
43217;BME280;60511;42.686;23.300;2023-04-05T01:52:02;94215.13;;;22.11;27.90
43217;BME280;60511;42.686;23.300;2023-04-05T01:54:02;94214.84;;;22.16;28.49
43217;BME280;60511;42.686;23.300;2023-04-05T01:56:03;94156.94;;;21.71;27.89
43217;BME280;60511;42.686;23.300;2023-04-05T01:58:03;94218.72;;;22.19;27.92
43217;BME280;60511;42.686;23.300;2023-04-05T02:00:04;94203.97;;;22.13;27.56
43217;BME280;60511;42.686;23.300;2023-04-05T02:02:05;94222.56;;;22.18;27.80
43217;BME280;60511;42.686;23.300;2023-04-05T02:04:05;94226.03;;;22.18;28.12
43217;BME280;60511;42.686;23.300;2023-04-05T02:06:05;94230.56;;;22.14;27.51
43217;BME280;60511;42.686;23.300;2023-04-05T02:08:06;94222.16;;;22.16;27.67
43217;BME280;60511;42.686;23.300;2023-04-05T02:10:07;94178.78;;;21.85;27.72
43217;BME280;60511;42.686;23.300;2023-04-05T02:12:07;94210.72;;;22.03;27.47
43217;BME280;60511;42.686;23.300;2023-04-05T02:14:08;94231.78;;;22.17;27.52
43217;BME280;60511;42.686;23.300;2023-04-05T02:16:09;94222.06;;;22.12;27.57
43217;BME280;60511;42.686;23.300;2023-04-05T02:18:10;94225.59;;;22.16;27.18
43217;BME280;60511;42.686;23.300;2023-04-05T02:20:11;94215.69;;;22.20;27.30
43217;BME280;60511;42.686;23.300;2023-04-05T02:22:13;94110.38;;;21.35;27.35
43217;BME280;60511;42.686;23.300;2023-04-05T02:24:13;94188.50;;;21.90;27.42
43217;BME280;60511;42.686;23.300;2023-04-05T02:26:14;94227.19;;;22.17;27.79
43217;BME280;60511;42.686;23.300;2023-04-05T02:28:15;94226.47;;;22.20;27.86
43217;BME280;60511;42.686;23.300;2023-04-05T02:30:15;94085.28;;;21.31;27.50
43217;BME280;60511;42.686;23.300;2023-04-05T02:32:15;94218.72;;;22.19;27.64
43217;BME280;60511;42.686;23.300;2023-04-05T02:34:16;94237.16;;;22.17;27.21
43217;BME280;60511;42.686;23.300;2023-04-05T02:36:16;94221.78;;;22.17;27.36
43217;BME280;60511;42.686;23.300;2023-04-05T02:38:17;94186.53;;;21.87;27.35
43217;BME280;60511;42.686;23.300;2023-04-05T02:40:18;94211.28;;;22.12;27.68
43217;BME280;60511;42.686;23.300;2023-04-05T02:42:20;94228.72;;;22.18;27.60
43217;BME280;60511;42.686;23.300;2023-04-05T02:44:20;94234.13;;;22.18;27.87
43217;BME280;60511;42.686;23.300;2023-04-05T02:46:21;94217.88;;;22.15;27.72
43217;BME280;60511;42.686;23.300;2023-04-05T02:48:21;94228.72;;;22.18;27.92
43217;BME280;60511;42.686;23.300;2023-04-05T02:50:22;94128.19;;;21.59;27.79
43217;BME280;60511;42.686;23.300;2023-04-05T02:52:22;94224.41;;;22.14;27.84
43217;BME280;60511;42.686;23.300;2023-04-05T02:54:23;94221.00;;;22.17;27.74
43217;BME280;60511;42.686;23.300;2023-04-05T02:56:23;94212.91;;;22.17;27.76
43217;BME280;60511;42.686;23.300;2023-04-05T02:58:24;94232.16;;;22.15;27.85
43217;BME280;60511;42.686;23.300;2023-04-05T03:00:24;94168.91;;;21.74;27.67
43217;BME280;60511;42.686;23.300;2023-04-05T03:02:24;94197.81;;;21.93;27.91
43217;BME280;60511;42.686;23.300;2023-04-05T03:04:26;94206.97;;;22.07;27.63
43217;BME280;60511;42.686;23.300;2023-04-05T03:06:26;94225.09;;;22.11;27.48
43217;BME280;60511;42.686;23.300;2023-04-05T03:08:27;94146.88;;;21.68;27.91
43217;BME280;60511;42.686;23.300;2023-04-05T03:10:28;94154.16;;;21.67;27.79
43217;BME280;60511;42.686;23.300;2023-04-05T03:12:31;94232.50;;;22.14;27.66
43217;BME280;60511;42.686;23.300;2023-04-05T03:14:32;94195.16;;;21.96;27.56
43217;BME280;60511;42.686;23.300;2023-04-05T03:16:33;94225.09;;;22.11;27.75
43217;BME280;60511;42.686;23.300;2023-04-05T03:18:33;94215.91;;;22.12;27.97
43217;BME280;60511;42.686;23.300;2023-04-05T03:20:35;94227.75;;;22.07;27.84
43217;BME280;60511;42.686;23.300;2023-04-05T03:22:39;94212.44;;;22.11;27.54
43217;BME280;60511;42.686;23.300;2023-04-05T03:24:40;94222.34;;;22.07;27.68
43217;BME280;60511;42.686;23.300;2023-04-05T03:26:42;94212.41;;;21.92;27.57
43217;BME280;60511;42.686;23.300;2023-04-05T03:28:44;94221.13;;;22.04;27.72
43217;BME280;60511;42.686;23.300;2023-04-05T03:30:45;94210.28;;;22.01;27.71
43217;BME280;60511;42.686;23.300;2023-04-05T03:32:45;94224.53;;;22.01;27.47
43217;BME280;60511;42.686;23.300;2023-04-05T03:34:46;94208.72;;;22.00;27.43
43217;BME280;60511;42.686;23.300;2023-04-05T03:36:46;94173.59;;;21.77;27.65
43217;BME280;60511;42.686;23.300;2023-04-05T03:38:48;94219.06;;;21.98;27.58
43217;BME280;60511;42.686;23.300;2023-04-05T03:40:50;94168.09;;;21.54;27.42
43217;BME280;60511;42.686;23.300;2023-04-05T03:42:51;94198.84;;;21.88;27.51
43217;BME280;60511;42.686;23.300;2023-04-05T03:44:51;94221.13;;;22.04;27.50
43217;BME280;60511;42.686;23.300;2023-04-05T03:46:53;94229.22;;;22.04;27.70
43217;BME280;60511;42.686;23.300;2023-04-05T03:48:53;94198.84;;;21.88;27.29
43217;BME280;60511;42.686;23.300;2023-04-05T03:50:53;94226.63;;;21.92;27.43
43217;BME280;60511;42.686;23.300;2023-04-05T03:52:54;94237.25;;;22.01;27.26
43217;BME280;60511;42.686;23.300;2023-04-05T03:54:54;94210.16;;;21.78;27.60
43217;BME280;60511;42.686;23.300;2023-04-05T03:56:55;94217.44;;;21.93;27.47
43217;BME280;60511;42.686;23.300;2023-04-05T03:58:55;94235.66;;;22.00;27.53
43217;BME280;60511;42.686;23.300;2023-04-05T04:00:56;94231.69;;;21.94;27.25
43217;BME280;60511;42.686;23.300;2023-04-05T04:02:56;94246.53;;;22.03;27.62
43217;BME280;60511;42.686;23.300;2023-04-05T04:04:58;94221.81;;;21.82;27.89
43217;BME280;60511;42.686;23.300;2023-04-05T04:06:58;94247.16;;;21.97;27.90
43217;BME280;60511;42.686;23.300;2023-04-05T04:08:58;94231.59;;;21.90;27.69
43217;BME280;60511;42.686;23.300;2023-04-05T04:10:59;94249.91;;;22.00;27.82
43217;BME280;60511;42.686;23.300;2023-04-05T04:13:00;94239.41;;;21.95;27.63
43217;BME280;60511;42.686;23.300;2023-04-05T04:15:00;94250.72;;;22.01;27.70
43217;BME280;60511;42.686;23.300;2023-04-05T04:17:01;94253.66;;;21.96;27.82
43217;BME280;60511;42.686;23.300;2023-04-05T04:19:02;94245.25;;;21.97;27.73
43217;BME280;60511;42.686;23.300;2023-04-05T04:21:03;94251.75;;;21.96;27.74
43217;BME280;60511;42.686;23.300;2023-04-05T04:23:06;94242.81;;;21.92;28.01
43217;BME280;60511;42.686;23.300;2023-04-05T04:25:10;94193.22;;;21.58;27.91
43217;BME280;60511;42.686;23.300;2023-04-05T04:27:11;94255.94;;;21.94;27.90
43217;BME280;60511;42.686;23.300;2023-04-05T04:29:12;94256.56;;;21.87;27.99
43217;BME280;60511;42.686;23.300;2023-04-05T04:31:15;94176.00;;;21.46;27.81
43217;BME280;60511;42.686;23.300;2023-04-05T04:33:15;94260.13;;;21.91;27.77
43217;BME280;60511;42.686;23.300;2023-04-05T04:35:26;94244.03;;;21.95;27.73
43217;BME280;60511;42.686;23.300;2023-04-05T04:37:26;94255.16;;;21.93;27.73
43217;BME280;60511;42.686;23.300;2023-04-05T04:39:29;94244.50;;;21.81;27.73
43217;BME280;60511;42.686;23.300;2023-04-05T04:41:30;94267.84;;;21.93;27.88
43217;BME280;60511;42.686;23.300;2023-04-05T04:43:35;94256.38;;;21.96;27.80
43217;BME280;60511;42.686;23.300;2023-04-05T04:45:50;94232.94;;;21.80;27.88
43217;BME280;60511;42.686;23.300;2023-04-05T04:47:53;94111.56;;;21.02;27.89
43217;BME280;60511;42.686;23.300;2023-04-05T04:49:54;94261.31;;;21.94;27.71
43217;BME280;60511;42.686;23.300;2023-04-05T04:51:56;94207.34;;;21.55;28.04
43217;BME280;60511;42.686;23.300;2023-04-05T04:53:58;94258.97;;;21.92;27.97
43217;BME280;60511;42.686;23.300;2023-04-05T04:55:59;94254.94;;;21.82;28.09
43217;BME280;60511;42.686;23.300;2023-04-05T04:57:59;94264.53;;;21.99;28.02
43217;BME280;60511;42.686;23.300;2023-04-05T05:00:00;94264.97;;;22.01;27.74
43217;BME280;60511;42.686;23.300;2023-04-05T05:02:00;94260.63;;;21.97;27.66
43217;BME280;60511;42.686;23.300;2023-04-05T05:04:02;94272.19;;;21.97;27.99
43217;BME280;60511;42.686;23.300;2023-04-05T05:06:03;94250.19;;;21.95;27.83
43217;BME280;60511;42.686;23.300;2023-04-05T05:08:04;94177.59;;;21.48;27.77
43217;BME280;60511;42.686;23.300;2023-04-05T05:10:04;94255.69;;;21.99;27.99
43217;BME280;60511;42.686;23.300;2023-04-05T05:12:05;94260.69;;;22.00;27.81
43217;BME280;60511;42.686;23.300;2023-04-05T05:14:05;94212.72;;;21.71;27.53
43217;BME280;60511;42.686;23.300;2023-04-05T05:16:07;94263.91;;;22.06;28.00
43217;BME280;60511;42.686;23.300;2023-04-05T05:18:08;94222.78;;;21.74;27.53
43217;BME280;60511;42.686;23.300;2023-04-05T05:20:09;94113.19;;;21.07;27.94
43217;BME280;60511;42.686;23.300;2023-04-05T05:22:10;94265.84;;;21.90;27.75
43217;BME280;60511;42.686;23.300;2023-04-05T05:24:10;94264.09;;;21.97;27.88
43217;BME280;60511;42.686;23.300;2023-04-05T05:26:13;94267.50;;;21.94;27.77
43217;BME280;60511;42.686;23.300;2023-04-05T05:28:13;94249.88;;;21.81;27.59
43217;BME280;60511;42.686;23.300;2023-04-05T05:30:14;94270.03;;;21.87;27.49
43217;BME280;60511;42.686;23.300;2023-04-05T05:32:14;94286.09;;;21.99;27.66
43217;BME280;60511;42.686;23.300;2023-04-05T05:34:17;94257.84;;;21.93;27.46
43217;BME280;60511;42.686;23.300;2023-04-05T05:36:18;94269.59;;;22.01;27.71
43217;BME280;60511;42.686;23.300;2023-04-05T05:38:18;94275.03;;;22.04;27.43
43217;BME280;60511;42.686;23.300;2023-04-05T05:40:19;94271.91;;;22.02;27.63
43217;BME280;60511;42.686;23.300;2023-04-05T05:42:20;94218.44;;;21.69;27.36
43217;BME280;60511;42.686;23.300;2023-04-05T05:44:20;94239.19;;;21.84;27.62
43217;BME280;60511;42.686;23.300;2023-04-05T05:46:21;94262.19;;;21.98;27.55
43217;BME280;60511;42.686;23.300;2023-04-05T05:48:21;94098.34;;;20.97;27.44
43217;BME280;60511;42.686;23.300;2023-04-05T05:50:21;94259.78;;;21.93;27.43
43217;BME280;60511;42.686;23.300;2023-04-05T05:52:22;94216.53;;;21.70;27.76
43217;BME280;60511;42.686;23.300;2023-04-05T05:54:24;94258.81;;;22.01;28.35
43217;BME280;60511;42.686;23.300;2023-04-05T05:56:24;94245.28;;;21.81;28.07
43217;BME280;60511;42.686;23.300;2023-04-05T05:58:24;94271.91;;;22.02;28.22
43217;BME280;60511;42.686;23.300;2023-04-05T06:00:25;94268.78;;;22.00;28.41
43217;BME280;60511;42.686;23.300;2023-04-05T06:02:26;94260.69;;;22.00;28.75
43217;BME280;60511;42.686;23.300;2023-04-05T06:04:27;94233.53;;;21.90;28.86
43217;BME280;60511;42.686;23.300;2023-04-05T06:06:27;94119.78;;;21.10;28.72
43217;BME280;60511;42.686;23.300;2023-04-05T06:08:29;94201.28;;;21.58;28.94
43217;BME280;60511;42.686;23.300;2023-04-05T06:10:29;94213.59;;;21.59;29.08
43217;BME280;60511;42.686;23.300;2023-04-05T06:12:30;94247.03;;;21.74;29.13
43217;BME280;60511;42.686;23.300;2023-04-05T06:14:31;94278.78;;;22.00;29.12
43217;BME280;60511;42.686;23.300;2023-04-05T06:16:31;94242.59;;;21.81;29.17
43217;BME280;60511;42.686;23.300;2023-04-05T06:18:32;94280.34;;;22.01;29.82
43217;BME280;60511;42.686;23.300;2023-04-05T06:20:32;94167.06;;;21.26;29.71
43217;BME280;60511;42.686;23.300;2023-04-05T06:22:32;94263.16;;;21.90;29.60
43217;BME280;60511;42.686;23.300;2023-04-05T06:24:33;94225.25;;;21.63;30.32
43217;BME280;60511;42.686;23.300;2023-04-05T06:26:33;94209.97;;;21.51;31.10
43217;BME280;60511;42.686;23.300;2023-04-05T06:28:34;94286.09;;;21.99;32.13
43217;BME280;60511;42.686;23.300;2023-04-05T06:30:34;94269.16;;;21.99;33.23
43217;BME280;60511;42.686;23.300;2023-04-05T06:32:34;94274.97;;;22.01;33.70
43217;BME280;60511;42.686;23.300;2023-04-05T06:34:35;94281.47;;;22.00;34.27
43217;BME280;60511;42.686;23.300;2023-04-05T06:36:35;94228.69;;;21.63;33.75
43217;BME280;60511;42.686;23.300;2023-04-05T06:38:36;94300.44;;;22.03;34.37
43217;BME280;60511;42.686;23.300;2023-04-05T06:40:36;94263.69;;;21.95;35.16
43217;BME280;60511;42.686;23.300;2023-04-05T06:42:36;94309.38;;;22.07;35.01
43217;BME280;60511;42.686;23.300;2023-04-05T06:44:37;94302.16;;;22.12;35.11
43217;BME280;60511;42.686;23.300;2023-04-05T06:46:37;94301.81;;;22.13;34.05
43217;BME280;60511;42.686;23.300;2023-04-05T06:48:38;94299.97;;;22.17;34.08
43217;BME280;60511;42.686;23.300;2023-04-05T06:50:39;94281.28;;;22.08;33.82
43217;BME280;60511;42.686;23.300;2023-04-05T06:52:39;94301.81;;;22.13;33.51
43217;BME280;60511;42.686;23.300;2023-04-05T06:54:40;94316.56;;;22.19;33.06
43217;BME280;60511;42.686;23.300;2023-04-05T06:56:40;94295.91;;;22.07;32.98
43217;BME280;60511;42.686;23.300;2023-04-05T06:58:41;94260.75;;;21.84;33.32
43217;BME280;60511;42.686;23.300;2023-04-05T07:00:41;94312.50;;;22.10;33.27
43217;BME280;60511;42.686;23.300;2023-04-05T07:02:41;94313.16;;;22.22;32.89
43217;BME280;60511;42.686;23.300;2023-04-05T07:04:42;94260.81;;;21.88;32.07
43217;BME280;60511;42.686;23.300;2023-04-05T07:06:43;94309.09;;;22.13;31.89
43217;BME280;60511;42.686;23.300;2023-04-05T07:08:43;94334.91;;;22.30;31.80
43217;BME280;60511;42.686;23.300;2023-04-05T07:10:44;94290.84;;;22.06;31.41
43217;BME280;60511;42.686;23.300;2023-04-05T07:12:45;94322.47;;;22.25;31.74
43217;BME280;60511;42.686;23.300;2023-04-05T07:14:46;94287.53;;;22.13;31.59
43217;BME280;60511;42.686;23.300;2023-04-05T07:16:46;94329.25;;;22.35;31.33
43217;BME280;60511;42.686;23.300;2023-04-05T07:18:47;94324.66;;;22.35;31.06
43217;BME280;60511;42.686;23.300;2023-04-05T07:20:47;94345.06;;;22.36;30.86
43217;BME280;60511;42.686;23.300;2023-04-05T07:22:53;94337.97;;;22.28;31.01
43217;BME280;60511;42.686;23.300;2023-04-05T07:24:53;94351.53;;;22.32;31.22
43217;BME280;60511;42.686;23.300;2023-04-05T07:26:54;94281.00;;;21.78;30.86
43217;BME280;60511;42.686;23.300;2023-04-05T07:28:56;94335.28;;;22.28;31.38
43217;BME280;60511;42.686;23.300;2023-04-05T07:30:56;94329.44;;;22.26;31.17
43217;BME280;60511;42.686;23.300;2023-04-05T07:32:56;94319.44;;;22.11;30.90
43217;BME280;60511;42.686;23.300;2023-04-05T07:34:57;94329.97;;;22.16;30.81
43217;BME280;60511;42.686;23.300;2023-04-05T07:36:58;94321.88;;;22.16;30.59
43217;BME280;60511;42.686;23.300;2023-04-05T07:38:59;94267.09;;;21.76;30.36
43217;BME280;60511;42.686;23.300;2023-04-05T07:40:59;94338.47;;;22.18;29.76
43217;BME280;60511;42.686;23.300;2023-04-05T07:43:00;94275.25;;;21.80;30.78
43217;BME280;60511;42.686;23.300;2023-04-05T07:45:00;94283.34;;;21.80;30.17
43217;BME280;60511;42.686;23.300;2023-04-05T07:47:00;94344.75;;;22.06;30.39
43217;BME280;60511;42.686;23.300;2023-04-05T07:49:03;94358.41;;;22.13;30.08
43217;BME280;60511;42.686;23.300;2023-04-05T07:51:04;94358.41;;;22.13;30.29
43217;BME280;60511;42.686;23.300;2023-04-05T07:53:06;94354.66;;;22.18;30.17
43217;BME280;60511;42.686;23.300;2023-04-05T07:55:08;94362.31;;;22.16;29.89
43217;BME280;60511;42.686;23.300;2023-04-05T07:57:08;94285.00;;;21.69;30.02
43217;BME280;60511;42.686;23.300;2023-04-05T07:59:09;94363.78;;;22.13;29.87
43217;BME280;60511;42.686;23.300;2023-04-05T08:01:10;94370.13;;;22.21;29.94
43217;BME280;60511;42.686;23.300;2023-04-05T08:03:10;94331.28;;;21.90;29.78
43217;BME280;60511;42.686;23.300;2023-04-05T08:05:11;94377.72;;;22.15;29.76
43217;BME280;60511;42.686;23.300;2023-04-05T08:07:11;94319.59;;;21.82;29.87
43217;BME280;60511;42.686;23.300;2023-04-05T08:09:11;94368.38;;;22.13;29.54
43217;BME280;60511;42.686;23.300;2023-04-05T08:11:12;94342.94;;;21.94;29.44
43217;BME280;60511;42.686;23.300;2023-04-05T08:13:12;94369.53;;;22.12;29.42
43217;BME280;60511;42.686;23.300;2023-04-05T08:15:13;94308.53;;;21.72;29.80
43217;BME280;60511;42.686;23.300;2023-04-05T08:17:14;94366.50;;;22.13;29.50
43217;BME280;60511;42.686;23.300;2023-04-05T08:19:14;94368.75;;;22.11;29.83
43217;BME280;60511;42.686;23.300;2023-04-05T08:21:15;94345.03;;;21.85;29.04
43217;BME280;60511;42.686;23.300;2023-04-05T08:23:15;94377.44;;;22.04;29.22
43217;BME280;60511;42.686;23.300;2023-04-05T08:25:15;94382.22;;;22.11;29.42
43217;BME280;60511;42.686;23.300;2023-04-05T08:27:16;94394.91;;;22.11;29.86
43217;BME280;60511;42.686;23.300;2023-04-05T08:29:17;94383.44;;;22.14;29.43
43217;BME280;60511;42.686;23.300;2023-04-05T08:31:18;94369.53;;;22.12;29.64
43217;BME280;60511;42.686;23.300;2023-04-05T08:33:19;94381.38;;;22.07;29.77
43217;BME280;60511;42.686;23.300;2023-04-05T08:35:20;94353.66;;;21.91;29.56
43217;BME280;60511;42.686;23.300;2023-04-05T08:37:20;94381.63;;;22.02;29.57
43217;BME280;60511;42.686;23.300;2023-04-05T08:39:20;94384.31;;;22.18;30.24
43217;BME280;60511;42.686;23.300;2023-04-05T08:41:22;94365.09;;;22.03;29.58
43217;BME280;60511;42.686;23.300;2023-04-05T08:43:58;94395.78;;;22.15;29.59
43217;BME280;60511;42.686;23.300;2023-04-05T08:46:02;94358.94;;;21.87;29.61
43217;BME280;60511;42.686;23.300;2023-04-05T08:48:03;94254.25;;;21.22;29.46
43217;BME280;60511;42.686;23.300;2023-04-05T08:50:04;94397.78;;;22.18;29.38
43217;BME280;60511;42.686;23.300;2023-04-05T08:52:04;94354.69;;;21.86;29.25
43217;BME280;60511;42.686;23.300;2023-04-05T08:54:05;94404.16;;;22.25;29.37
43217;BME280;60511;42.686;23.300;2023-04-05T08:56:05;94405.72;;;22.26;29.35
43217;BME280;60511;42.686;23.300;2023-04-05T08:58:12;94271.56;;;21.53;29.49
43217;BME280;60511;42.686;23.300;2023-04-05T09:00:13;94344.50;;;21.95;29.33
43217;BME280;60511;42.686;23.300;2023-04-05T09:02:17;94262.88;;;21.43;29.07
43217;BME280;60511;42.686;23.300;2023-04-05T09:04:22;94409.69;;;22.33;29.06
43217;BME280;60511;42.686;23.300;2023-04-05T09:06:27;94416.59;;;22.30;28.97
43217;BME280;60511;42.686;23.300;2023-04-05T09:08:27;94416.50;;;22.26;29.29
43217;BME280;60511;42.686;23.300;2023-04-05T09:10:28;94415.00;;;22.29;29.00
43217;BME280;60511;42.686;23.300;2023-04-05T09:12:29;94411.97;;;22.31;29.18
43217;BME280;60511;42.686;23.300;2023-04-05T09:14:32;94390.66;;;22.10;29.26
43217;BME280;60511;42.686;23.300;2023-04-05T09:16:38;94423.63;;;22.35;28.98
43217;BME280;60511;42.686;23.300;2023-04-05T09:18:39;94311.84;;;21.65;29.39
43217;BME280;60511;42.686;23.300;2023-04-05T09:20:39;94403.34;;;22.25;29.06
43217;BME280;60511;42.686;23.300;2023-04-05T09:22:44;94367.53;;;22.08;28.89
43217;BME280;60511;42.686;23.300;2023-04-05T09:24:45;94418.06;;;22.43;28.95
43217;BME280;60511;42.686;23.300;2023-04-05T09:26:46;94402.31;;;22.45;28.85
43217;BME280;60511;42.686;23.300;2023-04-05T09:28:46;94418.53;;;22.49;29.39
43217;BME280;60511;42.686;23.300;2023-04-05T09:30:46;94388.84;;;22.30;29.05
43217;BME280;60511;42.686;23.300;2023-04-05T09:32:49;94418.41;;;22.42;28.87
43217;BME280;60511;42.686;23.300;2023-04-05T09:34:52;94425.78;;;22.45;28.97
43217;BME280;60511;42.686;23.300;2023-04-05T09:36:52;94393.94;;;22.35;28.61
43217;BME280;60511;42.686;23.300;2023-04-05T09:39:03;94412.72;;;22.47;28.61
43217;BME280;60511;42.686;23.300;2023-04-05T09:41:08;94406.91;;;22.45;28.38
43217;BME280;60511;42.686;23.300;2023-04-05T09:43:13;94388.94;;;22.33;28.45
43217;BME280;60511;42.686;23.300;2023-04-05T09:45:37;94399.94;;;22.44;28.65
43217;BME280;60511;42.686;23.300;2023-04-05T09:47:38;94345.03;;;22.01;28.49
43217;BME280;60511;42.686;23.300;2023-04-05T09:49:40;94320.59;;;21.94;28.71
43217;BME280;60511;42.686;23.300;2023-04-05T09:51:40;94385.44;;;22.33;28.51
43217;BME280;60511;42.686;23.300;2023-04-05T09:54:01;94398.03;;;22.44;28.41
43217;BME280;60511;42.686;23.300;2023-04-05T09:56:09;94390.38;;;22.46;28.68
43217;BME280;60511;42.686;23.300;2023-04-05T09:58:17;94360.81;;;22.18;28.58
43217;BME280;60511;42.686;23.300;2023-04-05T10:00:22;94405.78;;;22.46;28.34
43217;BME280;60511;42.686;23.300;2023-04-05T10:02:24;94409.69;;;22.49;28.56
43217;BME280;60511;42.686;23.300;2023-04-05T10:04:24;94355.97;;;22.08;28.45
43217;BME280;60511;42.686;23.300;2023-04-05T10:06:39;94411.25;;;22.50;28.53
43217;BME280;60511;42.686;23.300;2023-04-05T10:08:40;94386.41;;;22.24;28.52
43217;BME280;60511;42.686;23.300;2023-04-05T10:10:49;94404.03;;;22.54;28.45
43217;BME280;60511;42.686;23.300;2023-04-05T10:12:50;94409.00;;;22.52;28.46
43217;BME280;60511;42.686;23.300;2023-04-05T10:14:51;94341.28;;;22.05;28.50
43217;BME280;60511;42.686;23.300;2023-04-05T10:19:02;94419.06;;;22.55;28.56
43217;BME280;60511;42.686;23.300;2023-04-05T10:21:05;94431.00;;;22.54;28.38
43217;BME280;60511;42.686;23.300;2023-04-05T10:23:12;94302.63;;;21.82;28.22
43217;BME280;60511;42.686;23.300;2023-04-05T10:27:30;94427.16;;;22.55;28.56
43217;BME280;60511;42.686;23.300;2023-04-05T10:30:13;94398.25;;;22.55;28.38
43217;BME280;60511;42.686;23.300;2023-04-05T10:32:18;94368.47;;;22.32;28.53
43217;BME280;60511;42.686;23.300;2023-04-05T10:34:59;94400.69;;;22.60;28.17
43217;BME280;60511;42.686;23.300;2023-04-05T10:37:02;94404.50;;;22.59;28.36
43217;BME280;60511;42.686;23.300;2023-04-05T10:41:13;94418.00;;;22.59;28.24
43217;BME280;60511;42.686;23.300;2023-04-05T10:43:18;94387.59;;;22.43;28.32
43217;BME280;60511;42.686;23.300;2023-04-05T10:45:20;94379.00;;;22.37;28.40
43217;BME280;60511;42.686;23.300;2023-04-05T10:47:22;94407.59;;;22.58;28.27
43217;BME280;60511;42.686;23.300;2023-04-05T10:51:34;94400.19;;;22.55;28.41
43217;BME280;60511;42.686;23.300;2023-04-05T10:53:36;94391.16;;;22.47;28.12
43217;BME280;60511;42.686;23.300;2023-04-05T10:55:37;94355.84;;;22.20;28.23
43217;BME280;60511;42.686;23.300;2023-04-05T10:57:38;94401.34;;;22.54;28.41